sensor_id;sensor_type;location;lat;lon;timestamp;P1;durP1;ratioP1;P2;durP2;ratioP2
71091;SDS011;58751;50.708;7.134;2022-11-15T00:02:24;10.17;;;8.90;;
71091;SDS011;58751;50.708;7.134;2022-11-15T00:04:49;10.90;;;8.60;;
71091;SDS011;58751;50.708;7.134;2022-11-15T00:07:14;10.97;;;7.70;;
71091;SDS011;58751;50.708;7.134;2022-11-15T00:09:39;9.17;;;7.90;;
71091;SDS011;58751;50.708;7.134;2022-11-15T00:12:05;9.30;;;8.30;;
71091;SDS011;58751;50.708;7.134;2022-11-15T00:14:31;9.03;;;7.37;;
71091;SDS011;58751;50.708;7.134;2022-11-15T00:16:56;11.45;;;8.80;;
71091;SDS011;58751;50.708;7.134;2022-11-15T00:19:22;12.37;;;9.47;;
71091;SDS011;58751;50.708;7.134;2022-11-15T00:21:47;9.57;;;8.40;;
71091;SDS011;58751;50.708;7.134;2022-11-15T00:24:12;9.23;;;7.67;;
71091;SDS011;58751;50.708;7.134;2022-11-15T00:26:37;11.47;;;8.90;;
71091;SDS011;58751;50.708;7.134;2022-11-15T00:29:02;11.20;;;9.20;;
71091;SDS011;58751;50.708;7.134;2022-11-15T00:31:29;10.93;;;8.83;;
71091;SDS011;58751;50.708;7.134;2022-11-15T00:33:54;10.50;;;7.88;;
71091;SDS011;58751;50.708;7.134;2022-11-15T00:36:19;15.27;;;9.60;;
71091;SDS011;58751;50.708;7.134;2022-11-15T00:38:44;9.63;;;8.50;;
71091;SDS011;58751;50.708;7.134;2022-11-15T00:41:10;10.80;;;7.83;;
71091;SDS011;58751;50.708;7.134;2022-11-15T00:43:35;11.90;;;9.20;;
71091;SDS011;58751;50.708;7.134;2022-11-15T00:46:00;9.53;;;8.33;;
71091;SDS011;58751;50.708;7.134;2022-11-15T00:48:27;16.67;;;9.13;;
71091;SDS011;58751;50.708;7.134;2022-11-15T00:50:52;12.38;;;8.65;;
71091;SDS011;58751;50.708;7.134;2022-11-15T00:53:17;13.50;;;8.10;;
71091;SDS011;58751;50.708;7.134;2022-11-15T00:55:42;8.37;;;7.57;;
71091;SDS011;58751;50.708;7.134;2022-11-15T00:58:08;12.40;;;8.07;;
71091;SDS011;58751;50.708;7.134;2022-11-15T01:00:33;10.13;;;8.60;;
71091;SDS011;58751;50.708;7.134;2022-11-15T01:02:59;10.63;;;8.17;;
71091;SDS011;58751;50.708;7.134;2022-11-15T01:05:25;10.68;;;7.75;;
71091;SDS011;58751;50.708;7.134;2022-11-15T01:07:51;12.68;;;10.07;;
71091;SDS011;58751;50.708;7.134;2022-11-15T01:10:16;8.03;;;7.00;;
71091;SDS011;58751;50.708;7.134;2022-11-15T01:12:41;9.73;;;8.07;;
71091;SDS011;58751;50.708;7.134;2022-11-15T01:15:07;10.67;;;7.83;;
71091;SDS011;58751;50.708;7.134;2022-11-15T01:17:32;10.33;;;8.50;;
71091;SDS011;58751;50.708;7.134;2022-11-15T01:19:57;10.13;;;7.70;;
71091;SDS011;58751;50.708;7.134;2022-11-15T01:22:24;8.73;;;7.57;;
71091;SDS011;58751;50.708;7.134;2022-11-15T01:24:49;9.27;;;7.38;;
71091;SDS011;58751;50.708;7.134;2022-11-15T01:27:14;7.67;;;6.57;;
71091;SDS011;58751;50.708;7.134;2022-11-15T01:29:39;7.80;;;6.47;;
71091;SDS011;58751;50.708;7.134;2022-11-15T01:32:05;9.03;;;7.23;;
71091;SDS011;58751;50.708;7.134;2022-11-15T01:34:30;7.30;;;6.60;;
71091;SDS011;58751;50.708;7.134;2022-11-15T01:36:55;9.00;;;8.10;;
71091;SDS011;58751;50.708;7.134;2022-11-15T01:39:21;7.40;;;6.67;;
71091;SDS011;58751;50.708;7.134;2022-11-15T01:41:47;9.98;;;6.90;;
71091;SDS011;58751;50.708;7.134;2022-11-15T01:47:12;9.98;;;7.35;;
71091;SDS011;58751;50.708;7.134;2022-11-15T01:49:38;8.10;;;6.82;;
71091;SDS011;58751;50.708;7.134;2022-11-15T01:52:05;12.27;;;7.57;;
71091;SDS011;58751;50.708;7.134;2022-11-15T01:54:33;9.73;;;7.53;;
71091;SDS011;58751;50.708;7.134;2022-11-15T01:56:59;7.00;;;6.10;;
71091;SDS011;58751;50.708;7.134;2022-11-15T01:59:25;9.93;;;6.35;;
71091;SDS011;58751;50.708;7.134;2022-11-15T02:01:51;8.93;;;6.90;;
71091;SDS011;58751;50.708;7.134;2022-11-15T02:04:16;6.83;;;6.23;;
71091;SDS011;58751;50.708;7.134;2022-11-15T02:06:43;10.43;;;6.50;;
71091;SDS011;58751;50.708;7.134;2022-11-15T02:09:09;6.93;;;5.40;;
71091;SDS011;58751;50.708;7.134;2022-11-15T02:11:36;6.47;;;5.90;;
71091;SDS011;58751;50.708;7.134;2022-11-15T02:14:01;10.70;;;6.43;;
71091;SDS011;58751;50.708;7.134;2022-11-15T02:16:30;7.38;;;5.32;;
71091;SDS011;58751;50.708;7.134;2022-11-15T02:18:59;8.32;;;6.15;;
71091;SDS011;58751;50.708;7.134;2022-11-15T02:21:28;6.95;;;5.90;;
71091;SDS011;58751;50.708;7.134;2022-11-15T02:24:11;6.30;;;5.45;;
71091;SDS011;58751;50.708;7.134;2022-11-15T02:26:50;7.78;;;5.32;;
71091;SDS011;58751;50.708;7.134;2022-11-15T02:29:24;6.72;;;5.68;;
71091;SDS011;58751;50.708;7.134;2022-11-15T02:31:55;7.57;;;5.60;;
71091;SDS011;58751;50.708;7.134;2022-11-15T02:34:24;9.93;;;5.82;;
71091;SDS011;58751;50.708;7.134;2022-11-15T02:36:54;6.38;;;5.78;;
71091;SDS011;58751;50.708;7.134;2022-11-15T02:39:24;7.43;;;5.65;;
71091;SDS011;58751;50.708;7.134;2022-11-15T02:41:53;6.30;;;4.72;;
71091;SDS011;58751;50.708;7.134;2022-11-15T02:44:21;7.45;;;5.05;;
71091;SDS011;58751;50.708;7.134;2022-11-15T02:46:49;9.90;;;5.55;;
71091;SDS011;58751;50.708;7.134;2022-11-15T02:49:16;6.70;;;6.00;;
71091;SDS011;58751;50.708;7.134;2022-11-15T02:51:42;7.88;;;6.60;;
71091;SDS011;58751;50.708;7.134;2022-11-15T02:54:10;6.03;;;5.30;;
71091;SDS011;58751;50.708;7.134;2022-11-15T02:56:36;8.40;;;5.97;;
71091;SDS011;58751;50.708;7.134;2022-11-15T02:59:07;7.70;;;6.90;;
71091;SDS011;58751;50.708;7.134;2022-11-15T03:01:38;7.90;;;7.00;;
71091;SDS011;58751;50.708;7.134;2022-11-15T03:04:09;8.45;;;6.10;;
71091;SDS011;58751;50.708;7.134;2022-11-15T03:06:38;13.02;;;8.25;;
71091;SDS011;58751;50.708;7.134;2022-11-15T03:09:06;8.85;;;6.30;;
71091;SDS011;58751;50.708;7.134;2022-11-15T03:11:33;7.90;;;7.10;;
71091;SDS011;58751;50.708;7.134;2022-11-15T03:14:00;8.25;;;7.43;;
71091;SDS011;58751;50.708;7.134;2022-11-15T03:16:28;9.00;;;7.03;;
71091;SDS011;58751;50.708;7.134;2022-11-15T03:18:56;7.50;;;6.70;;
71091;SDS011;58751;50.708;7.134;2022-11-15T03:21:22;9.57;;;7.63;;
71091;SDS011;58751;50.708;7.134;2022-11-15T03:23:50;7.03;;;5.90;;
71091;SDS011;58751;50.708;7.134;2022-11-15T03:26:17;7.10;;;6.40;;
71091;SDS011;58751;50.708;7.134;2022-11-15T03:28:48;7.47;;;6.40;;
71091;SDS011;58751;50.708;7.134;2022-11-15T03:31:14;6.90;;;5.80;;
71091;SDS011;58751;50.708;7.134;2022-11-15T03:33:40;17.13;;;6.05;;
71091;SDS011;58751;50.708;7.134;2022-11-15T03:36:06;7.68;;;6.82;;
71091;SDS011;58751;50.708;7.134;2022-11-15T03:38:32;7.27;;;6.57;;
71091;SDS011;58751;50.708;7.134;2022-11-15T03:41:00;6.70;;;6.00;;
71091;SDS011;58751;50.708;7.134;2022-11-15T03:43:30;6.10;;;5.50;;
71091;SDS011;58751;50.708;7.134;2022-11-15T03:45:58;7.72;;;6.45;;
71091;SDS011;58751;50.708;7.134;2022-11-15T03:48:26;7.35;;;6.38;;
71091;SDS011;58751;50.708;7.134;2022-11-15T03:50:52;7.43;;;6.55;;
71091;SDS011;58751;50.708;7.134;2022-11-15T03:53:17;7.53;;;6.83;;
71091;SDS011;58751;50.708;7.134;2022-11-15T03:55:43;7.07;;;6.33;;
71091;SDS011;58751;50.708;7.134;2022-11-15T03:58:09;8.00;;;7.20;;
71091;SDS011;58751;50.708;7.134;2022-11-15T04:00:36;8.07;;;7.20;;
71091;SDS011;58751;50.708;7.134;2022-11-15T04:03:01;7.33;;;6.63;;
71091;SDS011;58751;50.708;7.134;2022-11-15T04:05:26;7.20;;;6.50;;
71091;SDS011;58751;50.708;7.134;2022-11-15T04:07:52;7.00;;;6.30;;
71091;SDS011;58751;50.708;7.134;2022-11-15T04:10:17;7.30;;;6.63;;
71091;SDS011;58751;50.708;7.134;2022-11-15T04:12:43;7.83;;;6.90;;
71091;SDS011;58751;50.708;7.134;2022-11-15T04:15:10;7.03;;;6.30;;
71091;SDS011;58751;50.708;7.134;2022-11-15T04:17:37;8.38;;;6.65;;
71091;SDS011;58751;50.708;7.134;2022-11-15T04:20:02;7.65;;;6.60;;
71091;SDS011;58751;50.708;7.134;2022-11-15T04:22:28;7.90;;;7.13;;
71091;SDS011;58751;50.708;7.134;2022-11-15T04:24:53;10.93;;;8.23;;
71091;SDS011;58751;50.708;7.134;2022-11-15T04:27:18;8.17;;;7.37;;
71091;SDS011;58751;50.708;7.134;2022-11-15T04:29:43;8.33;;;7.43;;
71091;SDS011;58751;50.708;7.134;2022-11-15T04:32:10;8.17;;;5.60;;
71091;SDS011;58751;50.708;7.134;2022-11-15T04:34:35;6.63;;;5.88;;
71091;SDS011;58751;50.708;7.134;2022-11-15T04:37:00;7.03;;;6.43;;
71091;SDS011;58751;50.708;7.134;2022-11-15T04:39:26;7.60;;;6.53;;
71091;SDS011;58751;50.708;7.134;2022-11-15T04:41:51;7.17;;;6.37;;
71091;SDS011;58751;50.708;7.134;2022-11-15T04:44:16;6.87;;;6.23;;
71091;SDS011;58751;50.708;7.134;2022-11-15T04:46:41;6.87;;;6.17;;
71091;SDS011;58751;50.708;7.134;2022-11-15T04:49:08;6.43;;;5.70;;
71091;SDS011;58751;50.708;7.134;2022-11-15T04:51:33;6.82;;;4.95;;
71091;SDS011;58751;50.708;7.134;2022-11-15T04:53:58;6.40;;;5.80;;
71091;SDS011;58751;50.708;7.134;2022-11-15T04:56:23;7.27;;;4.93;;
71091;SDS011;58751;50.708;7.134;2022-11-15T04:58:49;7.03;;;5.20;;
71091;SDS011;58751;50.708;7.134;2022-11-15T05:01:14;6.10;;;5.50;;
71091;SDS011;58751;50.708;7.134;2022-11-15T05:03:39;5.17;;;4.70;;
71091;SDS011;58751;50.708;7.134;2022-11-15T05:06:06;7.63;;;5.60;;
71091;SDS011;58751;50.708;7.134;2022-11-15T05:08:31;6.10;;;5.50;;
71091;SDS011;58751;50.708;7.134;2022-11-15T05:10:57;6.20;;;5.00;;
71091;SDS011;58751;50.708;7.134;2022-11-15T05:13:22;7.53;;;5.77;;
71091;SDS011;58751;50.708;7.134;2022-11-15T05:15:47;8.27;;;5.20;;
71091;SDS011;58751;50.708;7.134;2022-11-15T05:18:12;5.13;;;4.70;;
71091;SDS011;58751;50.708;7.134;2022-11-15T05:20:37;5.97;;;5.40;;
71091;SDS011;58751;50.708;7.134;2022-11-15T05:23:04;8.87;;;4.17;;
71091;SDS011;58751;50.708;7.134;2022-11-15T05:25:29;5.05;;;4.55;;
71091;SDS011;58751;50.708;7.134;2022-11-15T05:27:54;8.47;;;6.17;;
71091;SDS011;58751;50.708;7.134;2022-11-15T05:30:19;5.33;;;4.83;;
71091;SDS011;58751;50.708;7.134;2022-11-15T05:32:45;5.93;;;4.60;;
71091;SDS011;58751;50.708;7.134;2022-11-15T05:35:12;5.13;;;4.63;;
71091;SDS011;58751;50.708;7.134;2022-11-15T05:37:38;5.70;;;5.20;;
71091;SDS011;58751;50.708;7.134;2022-11-15T05:40:05;6.27;;;5.50;;
71091;SDS011;58751;50.708;7.134;2022-11-15T05:42:30;5.30;;;4.40;;
71091;SDS011;58751;50.708;7.134;2022-11-15T05:44:55;6.30;;;4.70;;
71091;SDS011;58751;50.708;7.134;2022-11-15T05:47:22;7.90;;;5.97;;
71091;SDS011;58751;50.708;7.134;2022-11-15T05:49:49;4.55;;;4.25;;
71091;SDS011;58751;50.708;7.134;2022-11-15T05:52:15;4.80;;;4.40;;
71091;SDS011;58751;50.708;7.134;2022-11-15T05:54:41;4.75;;;4.35;;
71091;SDS011;58751;50.708;7.134;2022-11-15T05:57:08;5.30;;;4.77;;
71091;SDS011;58751;50.708;7.134;2022-11-15T05:59:33;5.80;;;4.85;;
71091;SDS011;58751;50.708;7.134;2022-11-15T06:01:59;4.17;;;3.83;;
71091;SDS011;58751;50.708;7.134;2022-11-15T06:04:24;4.50;;;4.10;;
71091;SDS011;58751;50.708;7.134;2022-11-15T06:06:50;6.57;;;3.87;;
71091;SDS011;58751;50.708;7.134;2022-11-15T06:09:15;4.00;;;3.70;;
71091;SDS011;58751;50.708;7.134;2022-11-15T06:11:40;3.50;;;3.20;;
71091;SDS011;58751;50.708;7.134;2022-11-15T06:14:07;4.00;;;3.70;;
71091;SDS011;58751;50.708;7.134;2022-11-15T06:16:32;4.13;;;3.78;;
71091;SDS011;58751;50.708;7.134;2022-11-15T06:18:57;9.00;;;4.60;;
71091;SDS011;58751;50.708;7.134;2022-11-15T06:21:22;4.57;;;3.73;;
71091;SDS011;58751;50.708;7.134;2022-11-15T06:23:47;2.97;;;2.77;;
71091;SDS011;58751;50.708;7.134;2022-11-15T06:26:13;4.23;;;3.83;;
71091;SDS011;58751;50.708;7.134;2022-11-15T06:28:38;4.63;;;3.77;;
71091;SDS011;58751;50.708;7.134;2022-11-15T06:31:05;12.20;;;3.77;;
71091;SDS011;58751;50.708;7.134;2022-11-15T06:33:31;4.25;;;3.95;;
71091;SDS011;58751;50.708;7.134;2022-11-15T06:35:59;3.43;;;3.23;;
71091;SDS011;58751;50.708;7.134;2022-11-15T06:38:24;4.25;;;3.53;;
71091;SDS011;58751;50.708;7.134;2022-11-15T06:40:49;4.77;;;3.80;;
71091;SDS011;58751;50.708;7.134;2022-11-15T06:43:15;4.23;;;3.83;;
71091;SDS011;58751;50.708;7.134;2022-11-15T06:45:40;4.90;;;3.20;;
71091;SDS011;58751;50.708;7.134;2022-11-15T06:48:06;4.00;;;3.70;;
71091;SDS011;58751;50.708;7.134;2022-11-15T06:50:32;3.75;;;3.45;;
71091;SDS011;58751;50.708;7.134;2022-11-15T06:53:00;4.40;;;3.60;;
71091;SDS011;58751;50.708;7.134;2022-11-15T06:55:25;3.00;;;2.67;;
71091;SDS011;58751;50.708;7.134;2022-11-15T06:57:51;4.03;;;3.10;;
71091;SDS011;58751;50.708;7.134;2022-11-15T07:00:17;3.50;;;3.20;;
71091;SDS011;58751;50.708;7.134;2022-11-15T07:02:42;3.40;;;3.10;;
71091;SDS011;58751;50.708;7.134;2022-11-15T07:05:09;3.57;;;3.13;;
71091;SDS011;58751;50.708;7.134;2022-11-15T07:07:34;4.40;;;3.22;;
71091;SDS011;58751;50.708;7.134;2022-11-15T07:09:59;4.17;;;3.60;;
71091;SDS011;58751;50.708;7.134;2022-11-15T07:12:25;3.67;;;3.37;;
71091;SDS011;58751;50.708;7.134;2022-11-15T07:14:50;3.63;;;3.27;;
71091;SDS011;58751;50.708;7.134;2022-11-15T07:17:15;2.30;;;2.10;;
71091;SDS011;58751;50.708;7.134;2022-11-15T07:19:40;2.93;;;2.73;;
71091;SDS011;58751;50.708;7.134;2022-11-15T07:22:07;2.97;;;2.77;;
71091;SDS011;58751;50.708;7.134;2022-11-15T07:24:32;3.42;;;3.00;;
71091;SDS011;58751;50.708;7.134;2022-11-15T07:26:57;7.00;;;3.17;;
71091;SDS011;58751;50.708;7.134;2022-11-15T07:29:22;3.97;;;3.20;;
71091;SDS011;58751;50.708;7.134;2022-11-15T07:31:48;3.23;;;2.93;;
71091;SDS011;58751;50.708;7.134;2022-11-15T07:34:14;4.70;;;3.38;;
71091;SDS011;58751;50.708;7.134;2022-11-15T07:36:39;3.53;;;3.23;;
71091;SDS011;58751;50.708;7.134;2022-11-15T07:39:05;4.93;;;3.47;;
71091;SDS011;58751;50.708;7.134;2022-11-15T07:41:31;5.55;;;4.90;;
71091;SDS011;58751;50.708;7.134;2022-11-15T07:43:56;4.20;;;3.80;;
71091;SDS011;58751;50.708;7.134;2022-11-15T07:46:21;5.40;;;3.67;;
71091;SDS011;58751;50.708;7.134;2022-11-15T07:48:46;7.73;;;3.90;;
71091;SDS011;58751;50.708;7.134;2022-11-15T07:51:11;4.90;;;3.37;;
71091;SDS011;58751;50.708;7.134;2022-11-15T07:53:37;3.40;;;3.10;;
71091;SDS011;58751;50.708;7.134;2022-11-15T07:56:05;6.33;;;3.93;;
71091;SDS011;58751;50.708;7.134;2022-11-15T07:58:30;4.30;;;3.90;;
71091;SDS011;58751;50.708;7.134;2022-11-15T08:00:55;4.00;;;3.33;;
71091;SDS011;58751;50.708;7.134;2022-11-15T08:03:20;3.50;;;3.20;;
71091;SDS011;58751;50.708;7.134;2022-11-15T08:05:49;3.87;;;3.20;;
71091;SDS011;58751;50.708;7.134;2022-11-15T08:08:15;4.70;;;3.95;;
71091;SDS011;58751;50.708;7.134;2022-11-15T08:10:40;5.63;;;3.50;;
71091;SDS011;58751;50.708;7.134;2022-11-15T08:13:09;4.13;;;2.97;;
71091;SDS011;58751;50.708;7.134;2022-11-15T08:15:34;3.22;;;2.78;;
71091;SDS011;58751;50.708;7.134;2022-11-15T08:18:00;4.37;;;3.20;;
71091;SDS011;58751;50.708;7.134;2022-11-15T08:20:26;3.20;;;2.90;;
71091;SDS011;58751;50.708;7.134;2022-11-15T08:22:52;3.33;;;3.00;;
71091;SDS011;58751;50.708;7.134;2022-11-15T08:25:17;6.17;;;3.53;;
71091;SDS011;58751;50.708;7.134;2022-11-15T08:27:42;2.67;;;2.47;;
71091;SDS011;58751;50.708;7.134;2022-11-15T08:30:09;4.40;;;3.10;;
71091;SDS011;58751;50.708;7.134;2022-11-15T08:32:35;3.78;;;3.15;;
71091;SDS011;58751;50.708;7.134;2022-11-15T08:35:00;2.60;;;2.40;;
71091;SDS011;58751;50.708;7.134;2022-11-15T08:37:25;3.13;;;2.50;;
71091;SDS011;58751;50.708;7.134;2022-11-15T08:39:50;3.97;;;2.00;;
71091;SDS011;58751;50.708;7.134;2022-11-15T08:42:15;2.97;;;2.67;;
71091;SDS011;58751;50.708;7.134;2022-11-15T08:44:41;2.87;;;2.67;;
71091;SDS011;58751;50.708;7.134;2022-11-15T08:47:07;2.87;;;2.67;;
71091;SDS011;58751;50.708;7.134;2022-11-15T08:49:35;2.67;;;2.45;;
71091;SDS011;58751;50.708;7.134;2022-11-15T08:52:01;3.17;;;2.70;;
71091;SDS011;58751;50.708;7.134;2022-11-15T08:54:26;3.20;;;2.37;;
71091;SDS011;58751;50.708;7.134;2022-11-15T08:56:51;3.10;;;2.30;;
71091;SDS011;58751;50.708;7.134;2022-11-15T08:59:16;2.60;;;2.40;;
71091;SDS011;58751;50.708;7.134;2022-11-15T09:01:41;2.13;;;1.93;;
71091;SDS011;58751;50.708;7.134;2022-11-15T09:04:08;3.07;;;1.90;;
71091;SDS011;58751;50.708;7.134;2022-11-15T09:06:33;2.72;;;1.98;;
71091;SDS011;58751;50.708;7.134;2022-11-15T09:09:00;2.50;;;2.27;;
71091;SDS011;58751;50.708;7.134;2022-11-15T09:11:25;1.90;;;1.80;;
71091;SDS011;58751;50.708;7.134;2022-11-15T09:13:50;2.27;;;2.07;;
71091;SDS011;58751;50.708;7.134;2022-11-15T09:16:16;3.70;;;2.00;;
71091;SDS011;58751;50.708;7.134;2022-11-15T09:18:41;2.20;;;2.10;;
71091;SDS011;58751;50.708;7.134;2022-11-15T09:21:08;1.80;;;1.53;;
71091;SDS011;58751;50.708;7.134;2022-11-15T09:23:33;2.35;;;2.15;;
71091;SDS011;58751;50.708;7.134;2022-11-15T09:25:59;2.20;;;2.10;;
71091;SDS011;58751;50.708;7.134;2022-11-15T09:28:24;2.33;;;1.57;;
71091;SDS011;58751;50.708;7.134;2022-11-15T09:30:49;8.43;;;2.40;;
71091;SDS011;58751;50.708;7.134;2022-11-15T09:33:14;2.07;;;1.57;;
71091;SDS011;58751;50.708;7.134;2022-11-15T09:35:40;1.40;;;1.30;;
71091;SDS011;58751;50.708;7.134;2022-11-15T09:38:06;1.13;;;0.70;;
71091;SDS011;58751;50.708;7.134;2022-11-15T09:40:32;1.65;;;1.40;;
71091;SDS011;58751;50.708;7.134;2022-11-15T09:43:01;1.47;;;1.00;;
71091;SDS011;58751;50.708;7.134;2022-11-15T09:45:28;0.70;;;0.70;;
71091;SDS011;58751;50.708;7.134;2022-11-15T09:47:59;2.60;;;1.03;;
71091;SDS011;58751;50.708;7.134;2022-11-15T09:50:28;1.17;;;0.97;;
71091;SDS011;58751;50.708;7.134;2022-11-15T09:52:55;0.80;;;0.80;;
71091;SDS011;58751;50.708;7.134;2022-11-15T09:55:24;2.10;;;0.70;;
71091;SDS011;58751;50.708;7.134;2022-11-15T09:57:52;1.67;;;0.70;;
71091;SDS011;58751;50.708;7.134;2022-11-15T10:00:19;2.40;;;0.80;;
71091;SDS011;58751;50.708;7.134;2022-11-15T10:02:49;3.53;;;0.80;;
71091;SDS011;58751;50.708;7.134;2022-11-15T10:05:18;0.87;;;0.70;;
71091;SDS011;58751;50.708;7.134;2022-11-15T10:07:46;2.77;;;0.60;;
71091;SDS011;58751;50.708;7.134;2022-11-15T10:10:14;1.43;;;0.87;;
71091;SDS011;58751;50.708;7.134;2022-11-15T10:12:44;1.70;;;0.73;;
71091;SDS011;58751;50.708;7.134;2022-11-15T10:15:11;1.43;;;0.77;;
71091;SDS011;58751;50.708;7.134;2022-11-15T10:17:42;0.70;;;0.57;;
71091;SDS011;58751;50.708;7.134;2022-11-15T10:20:13;0.93;;;0.83;;
71091;SDS011;58751;50.708;7.134;2022-11-15T10:22:41;0.77;;;0.60;;
71091;SDS011;58751;50.708;7.134;2022-11-15T10:25:14;2.67;;;0.70;;
71091;SDS011;58751;50.708;7.134;2022-11-15T10:27:43;0.63;;;0.50;;
71091;SDS011;58751;50.708;7.134;2022-11-15T10:30:10;1.00;;;0.90;;
71091;SDS011;58751;50.708;7.134;2022-11-15T10:32:36;2.40;;;0.80;;
71091;SDS011;58751;50.708;7.134;2022-11-15T10:35:02;0.97;;;0.77;;
71091;SDS011;58751;50.708;7.134;2022-11-15T10:37:40;1.13;;;0.70;;
71091;SDS011;58751;50.708;7.134;2022-11-15T10:40:06;0.50;;;0.50;;
71091;SDS011;58751;50.708;7.134;2022-11-15T10:42:32;2.90;;;0.87;;
71091;SDS011;58751;50.708;7.134;2022-11-15T10:44:58;1.30;;;0.60;;
71091;SDS011;58751;50.708;7.134;2022-11-15T10:47:25;0.97;;;0.57;;
71091;SDS011;58751;50.708;7.134;2022-11-15T10:49:57;0.77;;;0.70;;
71091;SDS011;58751;50.708;7.134;2022-11-15T10:52:22;0.73;;;0.70;;
71091;SDS011;58751;50.708;7.134;2022-11-15T10:54:48;3.10;;;0.73;;
71091;SDS011;58751;50.708;7.134;2022-11-15T10:57:14;1.80;;;0.60;;
71091;SDS011;58751;50.708;7.134;2022-11-15T10:59:42;0.60;;;0.60;;
71091;SDS011;58751;50.708;7.134;2022-11-15T11:05:06;0.83;;;0.43;;
71091;SDS011;58751;50.708;7.134;2022-11-15T11:07:54;0.70;;;0.50;;
71091;SDS011;58751;50.708;7.134;2022-11-15T11:10:20;1.37;;;0.53;;
71091;SDS011;58751;50.708;7.134;2022-11-15T11:12:46;1.23;;;0.57;;
71091;SDS011;58751;50.708;7.134;2022-11-15T11:15:12;0.80;;;0.60;;
71091;SDS011;58751;50.708;7.134;2022-11-15T11:17:43;0.93;;;0.80;;
71091;SDS011;58751;50.708;7.134;2022-11-15T11:20:15;0.88;;;0.63;;
71091;SDS011;58751;50.708;7.134;2022-11-15T11:22:47;0.88;;;0.60;;
71091;SDS011;58751;50.708;7.134;2022-11-15T11:25:18;0.80;;;0.80;;
71091;SDS011;58751;50.708;7.134;2022-11-15T11:27:47;1.10;;;0.97;;
71091;SDS011;58751;50.708;7.134;2022-11-15T11:30:17;1.17;;;1.00;;
71091;SDS011;58751;50.708;7.134;2022-11-15T11:32:50;1.48;;;0.90;;
71091;SDS011;58751;50.708;7.134;2022-11-15T11:35:22;1.00;;;0.60;;
71091;SDS011;58751;50.708;7.134;2022-11-15T11:37:49;1.13;;;0.70;;
71091;SDS011;58751;50.708;7.134;2022-11-15T11:40:19;2.43;;;0.80;;
71091;SDS011;58751;50.708;7.134;2022-11-15T11:42:47;1.30;;;0.80;;
71091;SDS011;58751;50.708;7.134;2022-11-15T11:45:15;1.50;;;0.70;;
71091;SDS011;58751;50.708;7.134;2022-11-15T11:47:46;0.97;;;0.83;;
71091;SDS011;58751;50.708;7.134;2022-11-15T11:50:13;1.73;;;1.00;;
71091;SDS011;58751;50.708;7.134;2022-11-15T11:52:41;2.00;;;1.10;;
71091;SDS011;58751;50.708;7.134;2022-11-15T11:55:12;1.77;;;1.10;;
71091;SDS011;58751;50.708;7.134;2022-11-15T11:57:39;3.23;;;1.20;;
71091;SDS011;58751;50.708;7.134;2022-11-15T12:00:12;1.23;;;1.10;;
71091;SDS011;58751;50.708;7.134;2022-11-15T12:02:40;1.23;;;1.13;;
71091;SDS011;58751;50.708;7.134;2022-11-15T12:05:09;2.33;;;1.30;;
71091;SDS011;58751;50.708;7.134;2022-11-15T12:07:35;2.97;;;1.55;;
71091;SDS011;58751;50.708;7.134;2022-11-15T12:10:03;2.03;;;1.47;;
71091;SDS011;58751;50.708;7.134;2022-11-15T12:12:30;2.33;;;1.38;;
71091;SDS011;58751;50.708;7.134;2022-11-15T12:14:57;1.98;;;1.52;;
71091;SDS011;58751;50.708;7.134;2022-11-15T12:17:24;2.85;;;1.60;;
71091;SDS011;58751;50.708;7.134;2022-11-15T12:19:50;2.95;;;1.90;;
71091;SDS011;58751;50.708;7.134;2022-11-15T12:22:20;3.53;;;1.65;;
71091;SDS011;58751;50.708;7.134;2022-11-15T12:24:47;2.05;;;1.95;;
71091;SDS011;58751;50.708;7.134;2022-11-15T12:27:16;2.45;;;2.05;;
71091;SDS011;58751;50.708;7.134;2022-11-15T12:29:42;3.25;;;1.90;;
71091;SDS011;58751;50.708;7.134;2022-11-15T12:32:14;2.58;;;2.38;;
71091;SDS011;58751;50.708;7.134;2022-11-15T12:34:43;3.13;;;2.10;;
71091;SDS011;58751;50.708;7.134;2022-11-15T12:40:04;2.47;;;1.70;;
71091;SDS011;58751;50.708;7.134;2022-11-15T12:42:40;2.25;;;2.05;;
71091;SDS011;58751;50.708;7.134;2022-11-15T12:45:22;3.00;;;2.55;;
71091;SDS011;58751;50.708;7.134;2022-11-15T12:47:48;4.13;;;2.30;;
71091;SDS011;58751;50.708;7.134;2022-11-15T12:50:13;2.90;;;2.70;;
71091;SDS011;58751;50.708;7.134;2022-11-15T12:52:42;3.43;;;3.13;;
71091;SDS011;58751;50.708;7.134;2022-11-15T12:55:32;2.03;;;1.92;;
71091;SDS011;58751;50.708;7.134;2022-11-15T12:57:59;3.20;;;2.38;;
71091;SDS011;58751;50.708;7.134;2022-11-15T13:00:44;3.63;;;2.20;;
71091;SDS011;58751;50.708;7.134;2022-11-15T13:06:09;2.60;;;2.40;;
71091;SDS011;58751;50.708;7.134;2022-11-15T13:08:42;2.85;;;2.60;;
71091;SDS011;58751;50.708;7.134;2022-11-15T13:13:53;2.45;;;2.25;;
71091;SDS011;58751;50.708;7.134;2022-11-15T13:16:19;4.90;;;2.67;;
71091;SDS011;58751;50.708;7.134;2022-11-15T13:18:44;3.60;;;2.67;;
71091;SDS011;58751;50.708;7.134;2022-11-15T13:21:19;2.95;;;2.47;;
71091;SDS011;58751;50.708;7.134;2022-11-15T13:23:44;2.55;;;1.95;;
71091;SDS011;58751;50.708;7.134;2022-11-15T13:26:11;3.20;;;2.40;;
71091;SDS011;58751;50.708;7.134;2022-11-15T13:28:38;3.10;;;2.20;;
71091;SDS011;58751;50.708;7.134;2022-11-15T13:33:50;2.15;;;2.05;;
71091;SDS011;58751;50.708;7.134;2022-11-15T13:36:18;2.58;;;2.15;;
71091;SDS011;58751;50.708;7.134;2022-11-15T13:38:44;2.60;;;2.40;;
71091;SDS011;58751;50.708;7.134;2022-11-15T13:41:11;4.87;;;2.30;;
71091;SDS011;58751;50.708;7.134;2022-11-15T13:43:39;2.58;;;2.15;;
71091;SDS011;58751;50.708;7.134;2022-11-15T13:46:09;2.57;;;2.37;;
71091;SDS011;58751;50.708;7.134;2022-11-15T13:48:35;2.42;;;2.05;;
71091;SDS011;58751;50.708;7.134;2022-11-15T13:51:02;3.20;;;3.00;;
71091;SDS011;58751;50.708;7.134;2022-11-15T13:53:28;4.95;;;2.10;;
71091;SDS011;58751;50.708;7.134;2022-11-15T13:55:53;2.50;;;2.30;;
71091;SDS011;58751;50.708;7.134;2022-11-15T13:58:20;2.70;;;2.40;;
71091;SDS011;58751;50.708;7.134;2022-11-15T14:00:45;2.43;;;2.23;;
71091;SDS011;58751;50.708;7.134;2022-11-15T14:03:14;2.50;;;2.30;;
71091;SDS011;58751;50.708;7.134;2022-11-15T14:05:40;2.08;;;1.98;;
71091;SDS011;58751;50.708;7.134;2022-11-15T14:08:13;7.13;;;2.03;;
71091;SDS011;58751;50.708;7.134;2022-11-15T14:10:46;2.58;;;1.77;;
71091;SDS011;58751;50.708;7.134;2022-11-15T14:13:26;1.97;;;1.60;;
71091;SDS011;58751;50.708;7.134;2022-11-15T14:15:51;2.40;;;1.92;;
71091;SDS011;58751;50.708;7.134;2022-11-15T14:21:05;2.80;;;1.60;;
71091;SDS011;58751;50.708;7.134;2022-11-15T14:23:31;1.60;;;1.50;;
71091;SDS011;58751;50.708;7.134;2022-11-15T14:25:57;1.73;;;1.60;;
71091;SDS011;58751;50.708;7.134;2022-11-15T14:28:29;4.53;;;1.70;;
71091;SDS011;58751;50.708;7.134;2022-11-15T14:30:55;1.52;;;1.42;;
71091;SDS011;58751;50.708;7.134;2022-11-15T14:33:21;2.50;;;1.67;;
71091;SDS011;58751;50.708;7.134;2022-11-15T14:35:47;2.85;;;1.55;;
71091;SDS011;58751;50.708;7.134;2022-11-15T14:38:12;1.30;;;1.27;;
71091;SDS011;58751;50.708;7.134;2022-11-15T14:40:39;1.53;;;1.43;;
71091;SDS011;58751;50.708;7.134;2022-11-15T14:43:04;1.65;;;1.55;;
71091;SDS011;58751;50.708;7.134;2022-11-15T14:45:29;2.33;;;1.60;;
71091;SDS011;58751;50.708;7.134;2022-11-15T14:47:55;3.40;;;1.30;;
71091;SDS011;58751;50.708;7.134;2022-11-15T14:50:20;1.53;;;1.20;;
71091;SDS011;58751;50.708;7.134;2022-11-15T14:52:46;1.50;;;1.40;;
71091;SDS011;58751;50.708;7.134;2022-11-15T14:55:13;2.23;;;1.60;;
71091;SDS011;58751;50.708;7.134;2022-11-15T14:57:41;2.00;;;1.80;;
71091;SDS011;58751;50.708;7.134;2022-11-15T15:00:07;3.08;;;1.65;;
71091;SDS011;58751;50.708;7.134;2022-11-15T15:02:32;3.20;;;1.63;;
71091;SDS011;58751;50.708;7.134;2022-11-15T15:04:57;1.40;;;1.30;;